Terminal Aerodrome Forecast
Issued by NWS

Home | Current Version | Previous Version | Text Only | Print | Product List | Glossary On
Versions: 1 2 3 4 5 6 7 8 9 10 11 12 13 14 15
000
FTUS46 KPDT 220533
TAFALW
TAF
KALW 220533Z 2206/2306 16010KT P6SM BKN060
     FM221700 17012KT 6SM -SHRA BKN020
     FM230100 17008KT P6SM SCT030 BKN060=

USA.gov is the U.S. government's official web portal to all federal, state and local government web resources and services.